Time,TemperatureF,DewpointF,PressureIn,WindDirection,WindDirectionDegrees,WindSpeedMPH,WindSpeedGustMPH,Humidity,HourlyPrecipIn,Conditions,Clouds,dailyrainin,SoftwareType,DateUTC
2013-02-13 00:04:00,18.1,13.8,29.66,NW,315,0.0,-999.0,83,-99.99,,,0.00,Acu-Link.com,2013-02-13 06:04:00,
2013-02-13 00:19:00,17.2,13.2,29.66,SW,225,1.7,-999.0,84,-99.99,,,0.00,Acu-Link.com,2013-02-13 06:19:00,
2013-02-13 00:34:00,16.2,12.5,29.66,WSW,247,1.1,-999.0,85,-99.99,,,0.00,Acu-Link.com,2013-02-13 06:34:00,
2013-02-13 00:50:00,16.0,12.6,29.66,WSW,247,3.7,-999.0,86,-99.99,,,0.00,Acu-Link.com,2013-02-13 06:50:00,
2013-02-13 01:05:00,17.1,13.9,29.65,West,270,2.7,-999.0,87,-99.99,,,0.00,Acu-Link.com,2013-02-13 07:05:00,
2013-02-13 01:20:00,16.9,13.5,29.65,West,270,2.7,-999.0,86,-99.99,,,0.00,Acu-Link.com,2013-02-13 07:20:00,
2013-02-13 01:35:00,16.7,13.3,29.64,West,270,2.2,-999.0,86,-99.99,,,0.00,Acu-Link.com,2013-02-13 07:35:00,
2013-02-13 01:51:00,16.7,13.3,29.64,WSW,247,3.2,-999.0,86,-99.99,,,0.00,Acu-Link.com,2013-02-13 07:51:00,
2013-02-13 02:06:00,16.9,13.7,29.64,WSW,247,3.7,-999.0,87,-99.99,,,0.00,Acu-Link.com,2013-02-13 08:06:00,
2013-02-13 02:21:00,17.2,14.0,29.64,SW,225,2.2,-999.0,87,-99.99,,,0.00,Acu-Link.com,2013-02-13 08:21:00,
2013-02-13 02:36:00,17.8,14.6,29.64,North,0,1.7,-999.0,87,-99.99,,,0.00,Acu-Link.com,2013-02-13 08:36:00,
2013-02-13 02:51:00,18.0,14.8,29.63,SSE,157,0.0,-999.0,87,-99.99,,,0.00,Acu-Link.com,2013-02-13 08:51:00,
2013-02-13 03:16:00,18.0,14.8,29.63,SSE,157,0.0,-999.0,87,-99.99,,,0.00,Acu-Link.com,2013-02-13 09:16:00,
2013-02-13 03:31:00,18.1,14.9,29.63,NNW,337,1.1,-999.0,87,-99.99,,,0.00,Acu-Link.com,2013-02-13 09:31:00,
2013-02-13 03:46:00,19.9,16.7,29.64,SSW,202,2.7,-999.0,87,-99.99,,,0.00,Acu-Link.com,2013-02-13 09:46:00,
2013-02-13 04:01:00,21.2,17.4,29.62,SE,135,1.1,-999.0,85,-99.99,,,0.00,Acu-Link.com,2013-02-13 10:01:00,
2013-02-13 04:16:00,21.6,17.5,29.62,SW,225,3.2,-999.0,84,-99.99,,,0.00,Acu-Link.com,2013-02-13 10:16:00,
2013-02-13 04:31:00,22.1,18.0,29.61,WSW,247,2.2,-999.0,84,-99.99,,,0.00,Acu-Link.com,2013-02-13 10:31:00,
2013-02-13 04:47:00,22.8,18.1,29.61,West,270,2.2,-999.0,82,-99.99,,,0.00,Acu-Link.com,2013-02-13 10:47:00,
2013-02-13 05:02:00,22.6,17.9,29.61,West,270,2.2,-999.0,82,-99.99,,,0.00,Acu-Link.com,2013-02-13 11:02:00,
2013-02-13 05:17:00,22.6,17.9,29.60,West,270,2.2,-999.0,82,-99.99,,,0.00,Acu-Link.com,2013-02-13 11:17:00,
2013-02-13 05:32:00,22.6,17.9,29.60,West,270,0.0,-999.0,82,-99.99,,,0.00,Acu-Link.com,2013-02-13 11:32:00,
2013-02-13 05:47:00,22.6,17.9,29.59,WNW,292,0.0,-999.0,82,-99.99,,,0.00,Acu-Link.com,2013-02-13 11:47:00,
2013-02-13 06:03:00,22.5,17.9,29.59,NNE,22,0.0,-999.0,82,-99.99,,,0.00,Acu-Link.com,2013-02-13 12:03:00,
2013-02-13 06:18:00,23.0,18.6,29.58,SSW,202,0.0,-999.0,83,-99.99,,,0.00,Acu-Link.com,2013-02-13 12:18:00,
2013-02-13 06:33:00,23.2,18.8,29.57,WNW,292,1.7,-999.0,83,-99.99,,,0.00,Acu-Link.com,2013-02-13 12:33:00,
2013-02-13 06:48:00,23.9,19.2,29.57,North,0,1.7,-999.0,82,-99.99,,,0.00,Acu-Link.com,2013-02-13 12:48:00,
2013-02-13 07:04:00,24.4,19.4,29.56,SW,225,1.7,-999.0,81,-99.99,,,0.00,Acu-Link.com,2013-02-13 13:04:00,
2013-02-13 07:19:00,23.2,18.5,29.56,North,0,1.1,-999.0,82,-99.99,,,0.00,Acu-Link.com,2013-02-13 13:19:00,
2013-02-13 07:34:00,20.5,15.9,29.55,ENE,67,2.7,-999.0,82,-99.99,,,0.00,Acu-Link.com,2013-02-13 13:34:00,
2013-02-13 07:49:00,19.8,16.0,29.56,SSW,202,1.1,-999.0,85,-99.99,,,0.00,Acu-Link.com,2013-02-13 13:49:00,
2013-02-13 08:04:00,20.7,16.6,29.57,West,270,0.0,-999.0,84,-99.99,,,0.00,Acu-Link.com,2013-02-13 14:04:00,
2013-02-13 08:20:00,22.3,17.7,29.57,SSE,157,0.0,-999.0,82,-99.99,,,0.00,Acu-Link.com,2013-02-13 14:20:00,
2013-02-13 08:35:00,25.0,17.9,29.56,NNW,337,0.0,-999.0,74,-99.99,,,0.00,Acu-Link.com,2013-02-13 14:35:00,
2013-02-13 08:50:00,26.6,19.8,29.56,WSW,247,3.2,-999.0,75,-99.99,,,0.00,Acu-Link.com,2013-02-13 14:50:00,
2013-02-13 09:05:00,29.1,20.9,29.56,West,270,2.7,-999.0,71,-99.99,,,0.00,Acu-Link.com,2013-02-13 15:05:00,
2013-02-13 09:20:00,30.0,21.1,29.56,West,270,1.7,-999.0,69,-99.99,,,0.00,Acu-Link.com,2013-02-13 15:20:00,
2013-02-13 09:36:00,31.8,22.1,29.55,SSW,202,1.7,-999.0,67,-99.99,,,0.00,Acu-Link.com,2013-02-13 15:36:00,
2013-02-13 09:51:00,32.2,21.8,29.55,WSW,247,3.7,-999.0,65,-99.99,,,0.00,Acu-Link.com,2013-02-13 15:51:00,
2013-02-13 10:06:00,33.4,22.6,29.54,WNW,292,3.2,-999.0,64,-99.99,,,0.00,Acu-Link.com,2013-02-13 16:06:00,
2013-02-13 10:21:00,35.2,23.5,29.54,West,270,2.2,-999.0,62,-99.99,,,0.00,Acu-Link.com,2013-02-13 16:21:00,
2013-02-13 10:36:00,35.6,23.9,29.53,West,270,2.7,-999.0,62,-99.99,,,0.00,Acu-Link.com,2013-02-13 16:36:00,
2013-02-13 10:52:00,35.1,23.8,29.53,SW,225,3.7,-999.0,63,-99.99,,,0.00,Acu-Link.com,2013-02-13 16:52:00,
2013-02-13 11:07:00,35.8,24.5,29.53,South,180,2.7,-999.0,63,-99.99,,,0.00,Acu-Link.com,2013-02-13 17:07:00,
2013-02-13 11:22:00,37.8,26.0,29.52,WSW,247,2.7,-999.0,62,-99.99,,,0.01,Acu-Link.com,2013-02-13 17:22:00,
2013-02-13 11:37:00,38.3,26.0,29.53,South,180,1.7,-999.0,61,-99.99,,,0.01,Acu-Link.com,2013-02-13 17:37:00,
2013-02-13 11:53:00,39.4,26.7,29.52,SSE,157,2.2,-999.0,60,-99.99,,,0.01,Acu-Link.com,2013-02-13 17:53:00,
2013-02-13 12:08:00,39.6,26.5,29.51,East,90,0.0,-999.0,59,-99.99,,,0.01,Acu-Link.com,2013-02-13 18:08:00,
2013-02-13 12:23:00,41.4,27.3,29.51,West,270,1.7,-999.0,57,-99.99,,,0.01,Acu-Link.com,2013-02-13 18:23:00,
2013-02-13 12:38:00,37.9,26.4,29.50,NW,315,2.7,-999.0,63,-99.99,,,0.02,Acu-Link.com,2013-02-13 18:38:00,
2013-02-13 12:53:00,36.7,25.7,29.49,ESE,112,4.2,-999.0,64,-99.99,,,0.03,Acu-Link.com,2013-02-13 18:53:00,
2013-02-13 13:09:00,36.5,25.5,29.48,SW,225,2.7,-999.0,64,-99.99,,,0.03,Acu-Link.com,2013-02-13 19:09:00,
2013-02-13 13:24:00,37.2,26.5,29.49,SW,225,5.3,-999.0,65,-99.99,,,0.04,Acu-Link.com,2013-02-13 19:24:00,
2013-02-13 13:39:00,35.8,25.9,29.49,SW,225,3.7,-999.0,67,-99.99,,,0.05,Acu-Link.com,2013-02-13 19:39:00,
2013-02-13 13:54:00,36.3,26.0,29.48,WSW,247,1.7,-999.0,66,-99.99,,,0.06,Acu-Link.com,2013-02-13 19:54:00,
2013-02-13 14:09:00,36.0,26.1,29.48,SW,225,3.2,-999.0,67,-99.99,,,0.06,Acu-Link.com,2013-02-13 20:09:00,
2013-02-13 14:25:00,35.8,26.3,29.47,SSW,202,3.2,-999.0,68,-99.99,,,0.07,Acu-Link.com,2013-02-13 20:25:00,
2013-02-13 14:40:00,36.5,27.3,29.47,SW,225,1.1,-999.0,69,-99.99,,,0.08,Acu-Link.com,2013-02-13 20:40:00,
2013-02-13 14:55:00,35.2,26.8,29.46,East,90,1.7,-999.0,71,-99.99,,,0.08,Acu-Link.com,2013-02-13 20:55:00,
2013-02-13 15:10:00,36.3,27.1,29.45,SE,135,1.1,-999.0,69,-99.99,,,0.09,Acu-Link.com,2013-02-13 21:10:00,
2013-02-13 15:25:00,36.1,27.6,29.45,NW,315,0.0,-999.0,71,-99.99,,,0.09,Acu-Link.com,2013-02-13 21:25:00,
2013-02-13 15:41:00,36.1,27.6,29.45,ESE,112,0.0,-999.0,71,-99.99,,,0.10,Acu-Link.com,2013-02-13 21:41:00,
2013-02-13 15:56:00,33.6,26.5,29.44,WNW,292,1.7,-999.0,75,-99.99,,,0.10,Acu-Link.com,2013-02-13 21:56:00,
2013-02-13 16:11:00,32.4,27.2,29.44,ESE,112,2.2,-999.0,81,-99.99,,,0.11,Acu-Link.com,2013-02-13 22:11:00,
2013-02-13 16:26:00,31.6,27.3,29.44,ENE,67,2.7,-999.0,84,-99.99,,,0.11,Acu-Link.com,2013-02-13 22:26:00,
2013-02-13 16:41:00,31.1,27.4,29.44,East,90,2.7,-999.0,86,-99.99,,,0.11,Acu-Link.com,2013-02-13 22:41:00,
2013-02-13 16:57:00,30.6,27.2,29.44,NE,45,4.2,-999.0,87,-99.99,,,0.11,Acu-Link.com,2013-02-13 22:57:00,
2013-02-13 17:12:00,30.7,27.6,29.45,SE,135,1.1,-999.0,88,-99.99,,,0.11,Acu-Link.com,2013-02-13 23:12:00,
2013-02-13 17:27:00,30.7,27.6,29.44,WSW,247,3.2,-999.0,88,-99.99,,,0.11,Acu-Link.com,2013-02-13 23:27:00,
2013-02-13 17:42:00,30.7,27.6,29.45,East,90,1.7,-999.0,88,-99.99,,,0.11,Acu-Link.com,2013-02-13 23:42:00,
2013-02-13 17:58:00,30.6,27.5,29.44,East,90,0.0,-999.0,88,-99.99,,,0.11,Acu-Link.com,2013-02-13 23:58:00,
2013-02-13 18:13:00,30.4,27.6,29.43,East,90,0.0,-999.0,89,-99.99,,,0.11,Acu-Link.com,2013-02-14 00:13:00,
2013-02-13 18:28:00,30.4,27.6,29.43,West,270,0.0,-999.0,89,-99.99,,,0.11,Acu-Link.com,2013-02-14 00:28:00,
2013-02-13 18:43:00,30.4,27.6,29.43,SSE,157,0.0,-999.0,89,-99.99,,,0.11,Acu-Link.com,2013-02-14 00:43:00,
2013-02-13 18:58:00,30.4,27.8,29.43,NE,45,0.0,-999.0,90,-99.99,,,0.11,Acu-Link.com,2013-02-14 00:58:00,
2013-02-13 19:14:00,30.4,27.8,29.42,East,90,0.0,-999.0,90,-99.99,,,0.11,Acu-Link.com,2013-02-14 01:14:00,
2013-02-13 19:29:00,30.4,27.8,29.43,NE,45,0.0,-999.0,90,-99.99,,,0.11,Acu-Link.com,2013-02-14 01:29:00,
2013-02-13 19:44:00,30.4,27.8,29.43,NE,45,0.0,-999.0,90,-99.99,,,0.11,Acu-Link.com,2013-02-14 01:44:00,
2013-02-13 19:59:00,30.6,27.8,29.43,NNE,22,0.0,-999.0,89,-99.99,,,0.11,Acu-Link.com,2013-02-14 01:59:00,
2013-02-13 20:14:00,30.6,27.8,29.43,NNE,22,0.0,-999.0,89,-99.99,,,0.11,Acu-Link.com,2013-02-14 02:14:00,
2013-02-13 20:30:00,30.6,27.8,29.43,NNE,22,0.0,-999.0,89,-99.99,,,0.11,Acu-Link.com,2013-02-14 02:30:00,
2013-02-13 20:45:00,30.6,27.8,29.43,SW,225,0.0,-999.0,89,-99.99,,,0.11,Acu-Link.com,2013-02-14 02:45:00,
2013-02-13 21:00:00,30.6,27.8,29.44,NNE,22,0.0,-999.0,89,-99.99,,,0.11,Acu-Link.com,2013-02-14 03:00:00,
2013-02-13 21:15:00,30.6,27.8,29.44,West,270,0.0,-999.0,89,-99.99,,,0.11,Acu-Link.com,2013-02-14 03:15:00,
2013-02-13 21:30:00,30.4,27.6,29.45,West,270,0.0,-999.0,89,-99.99,,,0.11,Acu-Link.com,2013-02-14 03:30:00,
2013-02-13 21:46:00,30.4,27.6,29.45,WSW,247,0.0,-999.0,89,-99.99,,,0.11,Acu-Link.com,2013-02-14 03:46:00,
2013-02-13 22:01:00,30.4,27.8,29.45,SW,225,0.0,-999.0,90,-99.99,,,0.11,Acu-Link.com,2013-02-14 04:01:00,
2013-02-13 22:16:00,30.4,27.8,29.46,SW,225,0.0,-999.0,90,-99.99,,,0.11,Acu-Link.com,2013-02-14 04:16:00,
2013-02-13 22:31:00,30.6,28.0,29.47,SSW,202,0.0,-999.0,90,-99.99,,,0.11,Acu-Link.com,2013-02-14 04:31:00,
2013-02-13 22:46:00,30.7,28.1,29.48,West,270,0.0,-999.0,90,-99.99,,,0.11,Acu-Link.com,2013-02-14 04:46:00,
2013-02-13 23:02:00,30.7,28.1,29.48,NW,315,0.0,-999.0,90,-99.99,,,0.11,Acu-Link.com,2013-02-14 05:02:00,
2013-02-13 23:17:00,30.7,28.1,29.49,WSW,247,0.0,-999.0,90,-99.99,,,0.11,Acu-Link.com,2013-02-14 05:17:00,
2013-02-13 23:32:00,30.7,28.1,29.49,SSE,157,0.0,-999.0,90,-99.99,,,0.11,Acu-Link.com,2013-02-14 05:32:00,
2013-02-13 23:47:00,30.4,27.6,29.51,ESE,112,0.0,-999.0,89,-99.99,,,0.11,Acu-Link.com,2013-02-14 05:47:00,